Weather at Southampton Airport

Public forecast

Using degrees Celsius for public forecast. Weather courtesy of forecast.io.

Current aviation weather report (METAR) for Southampton Airport

Retrieved 2021/04/13 10:50 UTC (23 minutes ago):

EGHI 131050Z VRB03KT 9999 SCT029 10/03 Q1033

Aviation forecast (TAF) for Southampton Airport

Forecast is more than 12 hours old.

Retrieved 2020/02/21 21:54 UTC (1 year ago):

TAF EGHI 210345Z 2021/2123 CNL